sensor_id;sensor_type;location;lat;lon;timestamp;pressure;altitude;pressure_sealevel;temperature;humidity
29935;BME280;19905;53.370;-6.314;2023-03-05T00:01:40;102349.31;;;3.26;100.00
29935;BME280;19905;53.370;-6.314;2023-03-05T00:04:11;102346.59;;;3.29;100.00
29935;BME280;19905;53.370;-6.314;2023-03-05T00:06:41;102345.78;;;3.27;100.00
29935;BME280;19905;53.370;-6.314;2023-03-05T00:09:12;102334.53;;;3.25;100.00
29935;BME280;19905;53.370;-6.314;2023-03-05T00:11:40;102329.31;;;3.25;100.00
29935;BME280;19905;53.370;-6.314;2023-03-05T00:14:12;102327.56;;;3.26;100.00
29935;BME280;19905;53.370;-6.314;2023-03-05T00:16:40;102328.41;;;3.25;100.00
29935;BME280;19905;53.370;-6.314;2023-03-05T00:19:09;102327.56;;;3.26;100.00
29935;BME280;19905;53.370;-6.314;2023-03-05T00:21:39;102326.78;;;3.19;100.00
29935;BME280;19905;53.370;-6.314;2023-03-05T00:24:11;102315.50;;;3.19;100.00
29935;BME280;19905;53.370;-6.314;2023-03-05T00:26:40;102312.75;;;3.25;100.00
29935;BME280;19905;53.370;-6.314;2023-03-05T00:29:11;102312.84;;;3.20;100.00
29935;BME280;19905;53.370;-6.314;2023-03-05T00:31:41;102307.66;;;3.19;100.00
29935;BME280;19905;53.370;-6.314;2023-03-05T00:34:12;102308.56;;;3.18;100.00
29935;BME280;19905;53.370;-6.314;2023-03-05T00:36:43;102305.91;;;3.19;100.00
29935;BME280;19905;53.370;-6.314;2023-03-05T00:39:12;102293.75;;;3.18;100.00
29935;BME280;19905;53.370;-6.314;2023-03-05T00:41:41;102288.56;;;3.17;100.00
29935;BME280;19905;53.370;-6.314;2023-03-05T00:44:12;102279.97;;;3.12;100.00
29935;BME280;19905;53.370;-6.314;2023-03-05T00:46:41;102286.06;;;3.11;100.00
29935;BME280;19905;53.370;-6.314;2023-03-05T00:49:09;102280.81;;;3.12;100.00
29935;BME280;19905;53.370;-6.314;2023-03-05T00:51:37;102282.59;;;3.12;100.00
29935;BME280;19905;53.370;-6.314;2023-03-05T00:54:06;102284.31;;;3.11;100.00
29935;BME280;19905;53.370;-6.314;2023-03-05T00:56:34;102279.97;;;3.10;100.00
29935;BME280;19905;53.370;-6.314;2023-03-05T00:59:03;102284.25;;;3.14;100.00
29935;BME280;19905;53.370;-6.314;2023-03-05T01:01:33;102283.31;;;3.18;100.00
29935;BME280;19905;53.370;-6.314;2023-03-05T01:04:01;102297.31;;;3.14;100.00
29935;BME280;19905;53.370;-6.314;2023-03-05T01:06:30;102287.00;;;3.08;100.00
29935;BME280;19905;53.370;-6.314;2023-03-05T01:08:58;102287.84;;;3.09;100.00
29935;BME280;19905;53.370;-6.314;2023-03-05T01:11:26;102294.78;;;3.10;100.00
29935;BME280;19905;53.370;-6.314;2023-03-05T01:13:55;102293.03;;;3.10;100.00
29935;BME280;19905;53.370;-6.314;2023-03-05T01:16:23;102292.19;;;3.10;100.00
29935;BME280;19905;53.370;-6.314;2023-03-05T01:18:54;102289.59;;;3.08;100.00
29935;BME280;19905;53.370;-6.314;2023-03-05T01:21:22;102294.84;;;3.08;100.00
29935;BME280;19905;53.370;-6.314;2023-03-05T01:23:51;102290.50;;;3.07;100.00
29935;BME280;19905;53.370;-6.314;2023-03-05T01:26:19;102287.91;;;3.07;100.00
29935;BME280;19905;53.370;-6.314;2023-03-05T01:28:48;102291.31;;;3.09;100.00
29935;BME280;19905;53.370;-6.314;2023-03-05T01:31:16;102273.88;;;3.11;100.00
29935;BME280;19905;53.370;-6.314;2023-03-05T01:33:45;102275.59;;;3.12;100.00
29935;BME280;19905;53.370;-6.314;2023-03-05T01:36:15;102280.13;;;3.04;100.00
29935;BME280;19905;53.370;-6.314;2023-03-05T01:38:45;102280.13;;;3.04;100.00
29935;BME280;19905;53.370;-6.314;2023-03-05T01:41:15;102278.41;;;3.01;100.00
29935;BME280;19905;53.370;-6.314;2023-03-05T01:43:45;102270.59;;;3.01;100.00
29935;BME280;19905;53.370;-6.314;2023-03-05T01:46:27;102270.72;;;2.95;100.00
29935;BME280;19905;53.370;-6.314;2023-03-05T01:49:02;102268.09;;;2.95;100.00
29935;BME280;19905;53.370;-6.314;2023-03-05T01:51:36;102264.53;;;2.99;100.00
29935;BME280;19905;53.370;-6.314;2023-03-05T01:54:10;102262.75;;;3.03;100.00
29935;BME280;19905;53.370;-6.314;2023-03-05T01:56:40;102262.88;;;2.95;100.00
29935;BME280;19905;53.370;-6.314;2023-03-05T01:59:11;102260.31;;;2.94;100.00
29935;BME280;19905;53.370;-6.314;2023-03-05T02:01:44;102262.03;;;2.95;100.00
29935;BME280;19905;53.370;-6.314;2023-03-05T02:04:15;102254.25;;;2.93;100.00
29935;BME280;19905;53.370;-6.314;2023-03-05T02:06:46;102258.56;;;2.93;100.00
29935;BME280;19905;53.370;-6.314;2023-03-05T02:09:15;102249.88;;;2.92;100.00
29935;BME280;19905;53.370;-6.314;2023-03-05T02:11:44;102251.72;;;2.89;100.00
29935;BME280;19905;53.370;-6.314;2023-03-05T02:14:13;102248.16;;;2.91;100.00
29935;BME280;19905;53.370;-6.314;2023-03-05T02:16:41;102242.16;;;2.88;100.00
29935;BME280;19905;53.370;-6.314;2023-03-05T02:19:12;102245.59;;;2.90;100.00
29935;BME280;19905;53.370;-6.314;2023-03-05T02:21:43;102234.31;;;2.88;100.00
29935;BME280;19905;53.370;-6.314;2023-03-05T02:24:12;102243.00;;;2.88;100.00
29935;BME280;19905;53.370;-6.314;2023-03-05T02:26:41;102231.78;;;2.85;100.00
29935;BME280;19905;53.370;-6.314;2023-03-05T02:29:14;102228.28;;;2.86;100.00
29935;BME280;19905;53.370;-6.314;2023-03-05T02:31:44;102230.00;;;2.87;100.00
29935;BME280;19905;53.370;-6.314;2023-03-05T02:34:13;102217.00;;;2.85;100.00
29935;BME280;19905;53.370;-6.314;2023-03-05T02:36:43;102216.09;;;2.86;100.00
29935;BME280;19905;53.370;-6.314;2023-03-05T02:39:12;102208.34;;;2.82;100.00
29935;BME280;19905;53.370;-6.314;2023-03-05T02:41:41;102211.78;;;2.84;100.00
29935;BME280;19905;53.370;-6.314;2023-03-05T02:44:10;102205.69;;;2.85;100.00
29935;BME280;19905;53.370;-6.314;2023-03-05T02:46:38;102198.72;;;2.84;100.00
29935;BME280;19905;53.370;-6.314;2023-03-05T02:49:06;102199.63;;;2.83;100.00
29935;BME280;19905;53.370;-6.314;2023-03-05T02:51:35;102204.03;;;2.79;100.00
29935;BME280;19905;53.370;-6.314;2023-03-05T02:54:05;102204.97;;;2.76;100.00
29935;BME280;19905;53.370;-6.314;2023-03-05T02:56:34;102197.97;;;2.80;100.00
29935;BME280;19905;53.370;-6.314;2023-03-05T02:59:04;102194.59;;;2.75;100.00
29935;BME280;19905;53.370;-6.314;2023-03-05T03:01:32;102179.78;;;2.74;100.00
29935;BME280;19905;53.370;-6.314;2023-03-05T03:04:01;102173.66;;;2.76;100.00
29935;BME280;19905;53.370;-6.314;2023-03-05T03:06:30;102171.91;;;2.77;100.00
29935;BME280;19905;53.370;-6.314;2023-03-05T03:08:58;102162.38;;;2.74;100.00
29935;BME280;19905;53.370;-6.314;2023-03-05T03:11:28;102163.31;;;2.72;100.00
29935;BME280;19905;53.370;-6.314;2023-03-05T03:13:58;102153.59;;;2.78;100.00
29935;BME280;19905;53.370;-6.314;2023-03-05T03:16:26;102154.66;;;2.70;100.00
29935;BME280;19905;53.370;-6.314;2023-03-05T03:18:55;102149.47;;;2.68;100.00
29935;BME280;19905;53.370;-6.314;2023-03-05T03:21:24;102143.31;;;2.72;100.00
29935;BME280;19905;53.370;-6.314;2023-03-05T03:23:53;102137.28;;;2.69;100.00
29935;BME280;19905;53.370;-6.314;2023-03-05T03:26:22;102137.28;;;2.69;100.00
29935;BME280;19905;53.370;-6.314;2023-03-05T03:28:52;102126.91;;;2.67;100.00
29935;BME280;19905;53.370;-6.314;2023-03-05T03:31:20;102119.97;;;2.65;100.00
29935;BME280;19905;53.370;-6.314;2023-03-05T03:33:49;102111.28;;;2.64;100.00
29935;BME280;19905;53.370;-6.314;2023-03-05T03:36:17;102106.03;;;2.67;100.00
29935;BME280;19905;53.370;-6.314;2023-03-05T03:38:46;102109.59;;;2.63;100.00
29935;BME280;19905;53.370;-6.314;2023-03-05T03:41:15;102092.13;;;2.65;100.00
29935;BME280;19905;53.370;-6.314;2023-03-05T03:43:44;102104.28;;;2.68;100.00
29935;BME280;19905;53.370;-6.314;2023-03-05T03:46:15;102100.88;;;2.64;100.00
29935;BME280;19905;53.370;-6.314;2023-03-05T03:48:43;102095.69;;;2.63;100.00
29935;BME280;19905;53.370;-6.314;2023-03-05T03:51:11;102088.69;;;2.65;100.00
29935;BME280;19905;53.370;-6.314;2023-03-05T03:53:40;102081.69;;;2.65;100.00
29935;BME280;19905;53.370;-6.314;2023-03-05T03:56:08;102086.16;;;2.60;100.00
29935;BME280;19905;53.370;-6.314;2023-03-05T03:58:37;102081.00;;;2.59;100.00
29935;BME280;19905;53.370;-6.314;2023-03-05T04:01:05;102076.69;;;2.56;100.00
29935;BME280;19905;53.370;-6.314;2023-03-05T04:03:35;102074.03;;;2.59;100.00
29935;BME280;19905;53.370;-6.314;2023-03-05T04:06:04;102059.28;;;2.57;100.00
29935;BME280;19905;53.370;-6.314;2023-03-05T04:08:32;102054.84;;;2.62;100.00
29935;BME280;19905;53.370;-6.314;2023-03-05T04:11:01;102058.47;;;2.54;100.00
29935;BME280;19905;53.370;-6.314;2023-03-05T04:13:30;102047.03;;;2.62;100.00
29935;BME280;19905;53.370;-6.314;2023-03-05T04:15:59;102047.97;;;2.58;100.00
29935;BME280;19905;53.370;-6.314;2023-03-05T04:18:27;102041.00;;;2.58;100.00
29935;BME280;19905;53.370;-6.314;2023-03-05T04:20:59;102045.31;;;2.59;100.00
29935;BME280;19905;53.370;-6.314;2023-03-05T04:23:28;102047.03;;;2.60;100.00
29935;BME280;19905;53.370;-6.314;2023-03-05T04:25:57;102044.53;;;2.57;100.00
29935;BME280;19905;53.370;-6.314;2023-03-05T04:28:26;102044.53;;;2.55;100.00
29935;BME280;19905;53.370;-6.314;2023-03-05T04:30:54;102039.31;;;2.57;100.00
29935;BME280;19905;53.370;-6.314;2023-03-05T04:33:23;102049.78;;;2.54;100.00
29935;BME280;19905;53.370;-6.314;2023-03-05T04:35:52;102045.38;;;2.56;100.00
29935;BME280;19905;53.370;-6.314;2023-03-05T04:38:22;102057.56;;;2.57;100.00
29935;BME280;19905;53.370;-6.314;2023-03-05T04:40:50;102048.03;;;2.54;100.00
29935;BME280;19905;53.370;-6.314;2023-03-05T04:43:19;102041.06;;;2.55;100.00
29935;BME280;19905;53.370;-6.314;2023-03-05T04:45:48;102030.63;;;2.55;100.00
29935;BME280;19905;53.370;-6.314;2023-03-05T04:48:16;102017.44;;;2.63;100.00
29935;BME280;19905;53.370;-6.314;2023-03-05T04:50:44;102021.91;;;2.56;100.00
29935;BME280;19905;53.370;-6.314;2023-03-05T04:53:13;102026.16;;;2.60;100.00
29935;BME280;19905;53.370;-6.314;2023-03-05T04:55:43;102022.81;;;2.55;100.00
29935;BME280;19905;53.370;-6.314;2023-03-05T04:58:12;102027.22;;;2.53;100.00
29935;BME280;19905;53.370;-6.314;2023-03-05T05:00:40;102029.81;;;2.53;100.00
29935;BME280;19905;53.370;-6.314;2023-03-05T05:03:09;102030.53;;;2.60;100.00
29935;BME280;19905;53.370;-6.314;2023-03-05T05:05:37;102021.97;;;2.54;100.00
29935;BME280;19905;53.370;-6.314;2023-03-05T05:08:06;102021.91;;;2.56;100.00
29935;BME280;19905;53.370;-6.314;2023-03-05T05:10:35;102010.63;;;2.57;100.00
29935;BME280;19905;53.370;-6.314;2023-03-05T05:13:07;102010.66;;;2.54;100.00
29935;BME280;19905;53.370;-6.314;2023-03-05T05:15:36;102005.50;;;2.52;100.00
29935;BME280;19905;53.370;-6.314;2023-03-05T05:18:04;101999.38;;;2.53;100.00
29935;BME280;19905;53.370;-6.314;2023-03-05T05:20:33;101994.22;;;2.50;100.00
29935;BME280;19905;53.370;-6.314;2023-03-05T05:23:01;101998.53;;;2.53;100.00
29935;BME280;19905;53.370;-6.314;2023-03-05T05:25:29;101997.63;;;2.54;100.00
29935;BME280;19905;53.370;-6.314;2023-03-05T05:27:58;101989.84;;;2.52;100.00
29935;BME280;19905;53.370;-6.314;2023-03-05T05:30:27;101982.84;;;2.54;100.00
29935;BME280;19905;53.370;-6.314;2023-03-05T05:32:56;101981.03;;;2.57;100.00
29935;BME280;19905;53.370;-6.314;2023-03-05T05:35:24;101973.34;;;2.50;100.00
29935;BME280;19905;53.370;-6.314;2023-03-05T05:37:53;101978.56;;;2.50;100.00
29935;BME280;19905;53.370;-6.314;2023-03-05T05:40:21;101978.63;;;2.49;100.00
29935;BME280;19905;53.370;-6.314;2023-03-05T05:42:50;101977.72;;;2.50;100.00
29935;BME280;19905;53.370;-6.314;2023-03-05T05:45:18;101975.16;;;2.48;100.00
29935;BME280;19905;53.370;-6.314;2023-03-05T05:47:49;101961.22;;;2.49;100.00
29935;BME280;19905;53.370;-6.314;2023-03-05T05:50:17;101962.97;;;2.49;100.00
29935;BME280;19905;53.370;-6.314;2023-03-05T05:52:46;101957.78;;;2.47;100.00
29935;BME280;19905;53.370;-6.314;2023-03-05T05:55:15;101961.25;;;2.48;100.00
29935;BME280;19905;53.370;-6.314;2023-03-05T05:57:43;101962.13;;;2.47;100.00
29935;BME280;19905;53.370;-6.314;2023-03-05T06:00:13;101962.13;;;2.48;100.00
29935;BME280;19905;53.370;-6.314;2023-03-05T06:02:42;101966.47;;;2.48;100.00
29935;BME280;19905;53.370;-6.314;2023-03-05T06:05:13;101975.16;;;2.47;100.00
29935;BME280;19905;53.370;-6.314;2023-03-05T06:07:42;101965.59;;;2.47;100.00
29935;BME280;19905;53.370;-6.314;2023-03-05T06:10:10;101966.47;;;2.48;100.00
29935;BME280;19905;53.370;-6.314;2023-03-05T06:12:41;101958.72;;;2.45;100.00
29935;BME280;19905;53.370;-6.314;2023-03-05T06:15:19;101956.00;;;2.49;100.00
29935;BME280;19905;53.370;-6.314;2023-03-05T06:17:48;101955.22;;;2.46;100.00
29935;BME280;19905;53.370;-6.314;2023-03-05T06:20:19;101953.41;;;2.49;100.00
29935;BME280;19905;53.370;-6.314;2023-03-05T06:22:49;101955.22;;;2.46;100.00
29935;BME280;19905;53.370;-6.314;2023-03-05T06:25:18;101955.25;;;2.43;100.00
29935;BME280;19905;53.370;-6.314;2023-03-05T06:27:46;101952.69;;;2.41;100.00
29935;BME280;19905;53.370;-6.314;2023-03-05T06:30:15;101944.88;;;2.41;100.00
29935;BME280;19905;53.370;-6.314;2023-03-05T06:32:43;101943.13;;;2.42;100.00
29935;BME280;19905;53.370;-6.314;2023-03-05T06:35:13;101941.41;;;2.41;100.00
29935;BME280;19905;53.370;-6.314;2023-03-05T06:37:42;101934.50;;;2.38;100.00
29935;BME280;19905;53.370;-6.314;2023-03-05T06:40:12;101932.81;;;2.37;100.00
29935;BME280;19905;53.370;-6.314;2023-03-05T06:42:41;101935.44;;;2.36;100.00
29935;BME280;19905;53.370;-6.314;2023-03-05T06:45:10;101935.41;;;2.39;100.00
29935;BME280;19905;53.370;-6.314;2023-03-05T06:47:38;101937.22;;;2.34;100.00
29935;BME280;19905;53.370;-6.314;2023-03-05T06:50:09;101938.88;;;2.38;100.00
29935;BME280;19905;53.370;-6.314;2023-03-05T06:52:37;101925.03;;;2.36;100.00
29935;BME280;19905;53.370;-6.314;2023-03-05T06:55:08;101925.88;;;2.36;100.00
29935;BME280;19905;53.370;-6.314;2023-03-05T06:57:37;101924.16;;;2.35;100.00
29935;BME280;19905;53.370;-6.314;2023-03-05T07:00:07;101925.88;;;2.36;100.00
29935;BME280;19905;53.370;-6.314;2023-03-05T07:02:36;101918.13;;;2.33;100.00
29935;BME280;19905;53.370;-6.314;2023-03-05T07:05:06;101918.97;;;2.34;100.00
29935;BME280;19905;53.370;-6.314;2023-03-05T07:07:35;101911.09;;;2.37;100.00
29935;BME280;19905;53.370;-6.314;2023-03-05T07:10:04;101916.31;;;2.37;100.00
29935;BME280;19905;53.370;-6.314;2023-03-05T07:12:35;101915.38;;;2.39;100.00
29935;BME280;19905;53.370;-6.314;2023-03-05T07:15:06;101918.00;;;2.39;100.00
29935;BME280;19905;53.370;-6.314;2023-03-05T07:17:34;101915.28;;;2.42;100.00
29935;BME280;19905;53.370;-6.314;2023-03-05T07:20:04;101911.78;;;2.45;100.00
29935;BME280;19905;53.370;-6.314;2023-03-05T07:22:33;101918.75;;;2.44;100.00
29935;BME280;19905;53.370;-6.314;2023-03-05T07:25:02;101922.94;;;2.50;100.00
29935;BME280;19905;53.370;-6.314;2023-03-05T07:27:35;101916.78;;;2.54;100.00
29935;BME280;19905;53.370;-6.314;2023-03-05T07:30:06;101912.53;;;2.50;100.00
29935;BME280;19905;53.370;-6.314;2023-03-05T07:32:35;101915.06;;;2.53;100.00
29935;BME280;19905;53.370;-6.314;2023-03-05T07:35:04;101915.06;;;2.53;100.00
29935;BME280;19905;53.370;-6.314;2023-03-05T07:37:33;101915.06;;;2.53;100.00
29935;BME280;19905;53.370;-6.314;2023-03-05T07:40:02;101905.44;;;2.55;100.00
29935;BME280;19905;53.370;-6.314;2023-03-05T07:42:33;101909.75;;;2.58;100.00
29935;BME280;19905;53.370;-6.314;2023-03-05T07:45:04;101910.53;;;2.60;100.00
29935;BME280;19905;53.370;-6.314;2023-03-05T07:47:34;101894.94;;;2.58;100.00
29935;BME280;19905;53.370;-6.314;2023-03-05T07:50:03;101889.72;;;2.58;100.00
29935;BME280;19905;53.370;-6.314;2023-03-05T07:52:31;101890.53;;;2.60;100.00
29935;BME280;19905;53.370;-6.314;2023-03-05T07:55:00;101890.34;;;2.68;100.00
29935;BME280;19905;53.370;-6.314;2023-03-05T07:57:29;101882.59;;;2.65;100.00
29935;BME280;19905;53.370;-6.314;2023-03-05T07:59:57;101875.63;;;2.65;100.00
29935;BME280;19905;53.370;-6.314;2023-03-05T08:02:27;101872.16;;;2.66;100.00
29935;BME280;19905;53.370;-6.314;2023-03-05T08:04:55;101860.88;;;2.64;100.00
29935;BME280;19905;53.370;-6.314;2023-03-05T08:07:24;101859.16;;;2.63;100.00
29935;BME280;19905;53.370;-6.314;2023-03-05T08:09:53;101860.84;;;2.66;100.00
29935;BME280;19905;53.370;-6.314;2023-03-05T08:12:21;101856.44;;;2.68;100.00
29935;BME280;19905;53.370;-6.314;2023-03-05T08:14:50;101860.66;;;2.73;100.00
29935;BME280;19905;53.370;-6.314;2023-03-05T08:17:19;101855.41;;;2.75;100.00
29935;BME280;19905;53.370;-6.314;2023-03-05T08:19:48;101862.28;;;2.77;100.00
29935;BME280;19905;53.370;-6.314;2023-03-05T08:22:17;101867.44;;;2.79;100.00
29935;BME280;19905;53.370;-6.314;2023-03-05T08:24:46;101862.22;;;2.79;100.00
29935;BME280;19905;53.370;-6.314;2023-03-05T08:27:16;101865.69;;;2.81;100.00
29935;BME280;19905;53.370;-6.314;2023-03-05T08:29:44;101862.16;;;2.82;100.00
29935;BME280;19905;53.370;-6.314;2023-03-05T08:32:13;101862.03;;;2.87;100.00
29935;BME280;19905;53.370;-6.314;2023-03-05T08:34:42;101857.72;;;2.86;100.00
29935;BME280;19905;53.370;-6.314;2023-03-05T08:37:12;101855.06;;;2.89;100.00
29935;BME280;19905;53.370;-6.314;2023-03-05T08:39:40;101856.63;;;2.94;100.00
29935;BME280;19905;53.370;-6.314;2023-03-05T08:42:09;101854.88;;;2.95;100.00
29935;BME280;19905;53.370;-6.314;2023-03-05T08:44:37;101848.50;;;3.05;100.00
29935;BME280;19905;53.370;-6.314;2023-03-05T08:47:06;101842.25;;;3.11;100.00
29935;BME280;19905;53.370;-6.314;2023-03-05T08:49:35;101850.06;;;3.12;100.00
29935;BME280;19905;53.370;-6.314;2023-03-05T08:52:04;101842.00;;;3.20;100.00
29935;BME280;19905;53.370;-6.314;2023-03-05T08:54:35;101837.69;;;3.19;100.00
29935;BME280;19905;53.370;-6.314;2023-03-05T08:57:04;101844.63;;;3.20;100.00
29935;BME280;19905;53.370;-6.314;2023-03-05T08:59:33;101829.78;;;3.22;100.00
29935;BME280;19905;53.370;-6.314;2023-03-05T09:02:02;101834.06;;;3.24;100.00
29935;BME280;19905;53.370;-6.314;2023-03-05T09:04:31;101816.38;;;3.34;100.00
29935;BME280;19905;53.370;-6.314;2023-03-05T09:06:59;101821.50;;;3.37;100.00
29935;BME280;19905;53.370;-6.314;2023-03-05T09:09:28;101811.56;;;3.50;100.00
29935;BME280;19905;53.370;-6.314;2023-03-05T09:12:00;101803.47;;;3.59;100.00
29935;BME280;19905;53.370;-6.314;2023-03-05T09:14:29;101811.97;;;3.66;100.00
29935;BME280;19905;53.370;-6.314;2023-03-05T09:16:57;101817.09;;;3.69;100.00
29935;BME280;19905;53.370;-6.314;2023-03-05T09:19:26;101797.81;;;3.73;100.00
29935;BME280;19905;53.370;-6.314;2023-03-05T09:21:54;101813.84;;;3.62;100.00
29935;BME280;19905;53.370;-6.314;2023-03-05T09:24:23;101801.50;;;3.66;100.00
29935;BME280;19905;53.370;-6.314;2023-03-05T09:26:51;101802.19;;;3.72;100.00
29935;BME280;19905;53.370;-6.314;2023-03-05T09:29:21;101795.25;;;3.71;100.00
29935;BME280;19905;53.370;-6.314;2023-03-05T09:31:50;101801.19;;;3.76;100.00
29935;BME280;19905;53.370;-6.314;2023-03-05T09:34:19;101794.53;;;3.66;100.00
29935;BME280;19905;53.370;-6.314;2023-03-05T09:36:48;101791.13;;;3.64;100.00
29935;BME280;19905;53.370;-6.314;2023-03-05T09:39:17;101781.72;;;3.57;100.00
29935;BME280;19905;53.370;-6.314;2023-03-05T09:42:12;101802.41;;;3.65;100.00
29935;BME280;19905;53.370;-6.314;2023-03-05T09:44:59;101785.09;;;3.62;100.00
29935;BME280;19905;53.370;-6.314;2023-03-05T09:47:44;101768.09;;;3.77;100.00
29935;BME280;19905;53.370;-6.314;2023-03-05T09:50:29;101761.59;;;3.89;100.00
29935;BME280;19905;53.370;-6.314;2023-03-05T09:53:05;101763.91;;;3.98;100.00
29935;BME280;19905;53.370;-6.314;2023-03-05T09:55:36;101757.97;;;3.93;100.00
29935;BME280;19905;53.370;-6.314;2023-03-05T09:58:11;101764.13;;;3.92;100.00
29935;BME280;19905;53.370;-6.314;2023-03-05T10:00:44;101754.22;;;4.01;100.00
29935;BME280;19905;53.370;-6.314;2023-03-05T10:03:16;101751.66;;;4.00;100.00
29935;BME280;19905;53.370;-6.314;2023-03-05T10:06:04;101749.00;;;4.01;100.00
29935;BME280;19905;53.370;-6.314;2023-03-05T10:08:44;101753.00;;;4.13;100.00
29935;BME280;19905;53.370;-6.314;2023-03-05T10:14:09;101742.16;;;4.24;100.00
29935;BME280;19905;53.370;-6.314;2023-03-05T10:19:55;101740.84;;;4.37;100.00
29935;BME280;19905;53.370;-6.314;2023-03-05T10:22:31;101738.53;;;4.53;100.00
29935;BME280;19905;53.370;-6.314;2023-03-05T10:25:10;101725.47;;;4.53;100.00
29935;BME280;19905;53.370;-6.314;2023-03-05T10:27:47;101723.50;;;4.59;100.00
29935;BME280;19905;53.370;-6.314;2023-03-05T10:30:29;101730.28;;;4.65;100.00
29935;BME280;19905;53.370;-6.314;2023-03-05T10:33:16;101722.31;;;4.68;100.00
29935;BME280;19905;53.370;-6.314;2023-03-05T10:36:10;101715.19;;;4.72;100.00
29935;BME280;19905;53.370;-6.314;2023-03-05T10:39:14;101716.59;;;4.82;100.00
29935;BME280;19905;53.370;-6.314;2023-03-05T10:41:54;101703.09;;;4.93;100.00
29935;BME280;19905;53.370;-6.314;2023-03-05T10:44:33;101708.22;;;5.19;100.00
29935;BME280;19905;53.370;-6.314;2023-03-05T10:47:11;101704.41;;;5.28;100.00
29935;BME280;19905;53.370;-6.314;2023-03-05T10:49:49;101699.34;;;5.23;100.00
29935;BME280;19905;53.370;-6.314;2023-03-05T10:52:20;101705.81;;;5.37;100.00
29935;BME280;19905;53.370;-6.314;2023-03-05T10:54:51;101699.03;;;5.53;100.00
29935;BME280;19905;53.370;-6.314;2023-03-05T10:57:21;101696.50;;;5.51;100.00
29935;BME280;19905;53.370;-6.314;2023-03-05T10:59:52;101700.44;;;5.61;100.00
29935;BME280;19905;53.370;-6.314;2023-03-05T11:02:22;101704.72;;;5.64;100.00
29935;BME280;19905;53.370;-6.314;2023-03-05T11:04:52;101700.25;;;5.66;100.00
29935;BME280;19905;53.370;-6.314;2023-03-05T11:07:35;101695.09;;;5.65;100.00
29935;BME280;19905;53.370;-6.314;2023-03-05T11:10:17;101699.16;;;5.72;100.00
29935;BME280;19905;53.370;-6.314;2023-03-05T11:12:49;101688.31;;;5.81;100.00
29935;BME280;19905;53.370;-6.314;2023-03-05T11:15:32;101690.69;;;5.87;100.00
29935;BME280;19905;53.370;-6.314;2023-03-05T11:18:16;101685.31;;;5.90;100.00
29935;BME280;19905;53.370;-6.314;2023-03-05T11:20:49;101688.19;;;6.06;100.00
29935;BME280;19905;53.370;-6.314;2023-03-05T11:23:19;101676.03;;;6.44;100.00
29935;BME280;19905;53.370;-6.314;2023-03-05T11:25:59;101664.53;;;6.67;100.00
29935;BME280;19905;53.370;-6.314;2023-03-05T11:28:31;101664.44;;;6.69;100.00
29935;BME280;19905;53.370;-6.314;2023-03-05T11:31:19;101665.28;;;6.50;100.00
29935;BME280;19905;53.370;-6.314;2023-03-05T11:33:54;101658.47;;;6.46;100.00
29935;BME280;19905;53.370;-6.314;2023-03-05T11:36:27;101644.03;;;6.56;100.00
29935;BME280;19905;53.370;-6.314;2023-03-05T11:39:02;101651.44;;;6.47;100.00
29935;BME280;19905;53.370;-6.314;2023-03-05T11:41:38;101650.19;;;6.55;100.00
29935;BME280;19905;53.370;-6.314;2023-03-05T11:44:11;101643.63;;;6.45;100.00
29935;BME280;19905;53.370;-6.314;2023-03-05T11:46:45;101646.41;;;6.22;100.00
29935;BME280;19905;53.370;-6.314;2023-03-05T11:49:18;101644.72;;;6.00;100.00
29935;BME280;19905;53.370;-6.314;2023-03-05T11:51:58;101642.78;;;6.04;100.00
29935;BME280;19905;53.370;-6.314;2023-03-05T11:54:33;101638.47;;;6.03;100.00
29935;BME280;19905;53.370;-6.314;2023-03-05T11:57:05;101630.38;;;5.87;100.00
29935;BME280;19905;53.370;-6.314;2023-03-05T11:59:36;101630.50;;;5.84;100.00
29935;BME280;19905;53.370;-6.314;2023-03-05T12:02:15;101627.53;;;5.93;100.00
29935;BME280;19905;53.370;-6.314;2023-03-05T12:04:46;101625.25;;;6.06;100.00
29935;BME280;19905;53.370;-6.314;2023-03-05T12:07:21;101626.81;;;6.10;100.00
29935;BME280;19905;53.370;-6.314;2023-03-05T12:09:53;101620.78;;;6.08;100.00
29935;BME280;19905;53.370;-6.314;2023-03-05T12:12:31;101614.69;;;6.07;100.00
29935;BME280;19905;53.370;-6.314;2023-03-05T12:15:27;101621.78;;;6.05;100.00
29935;BME280;19905;53.370;-6.314;2023-03-05T12:18:06;101611.72;;;5.95;100.00
29935;BME280;19905;53.370;-6.314;2023-03-05T12:20:44;101602.03;;;5.97;100.00
29935;BME280;19905;53.370;-6.314;2023-03-05T12:23:18;101604.41;;;5.81;100.00
29935;BME280;19905;53.370;-6.314;2023-03-05T12:25:49;101607.09;;;5.79;100.00
29935;BME280;19905;53.370;-6.314;2023-03-05T12:28:56;101604.28;;;5.84;100.00
29935;BME280;19905;53.370;-6.314;2023-03-05T12:31:34;101597.72;;;5.96;100.00
29935;BME280;19905;53.370;-6.314;2023-03-05T12:34:41;101594.81;;;6.02;100.00
29935;BME280;19905;53.370;-6.314;2023-03-05T12:37:14;101582.88;;;6.15;100.00
29935;BME280;19905;53.370;-6.314;2023-03-05T12:40:19;101576.81;;;6.33;100.00
29935;BME280;19905;53.370;-6.314;2023-03-05T12:42:53;101574.28;;;6.51;100.00
29935;BME280;19905;53.370;-6.314;2023-03-05T12:45:37;101567.91;;;6.56;100.00
29935;BME280;19905;53.370;-6.314;2023-03-05T12:48:40;101552.78;;;6.80;100.00
29935;BME280;19905;53.370;-6.314;2023-03-05T12:51:34;101538.13;;;6.94;100.00
29935;BME280;19905;53.370;-6.314;2023-03-05T12:54:26;101537.56;;;7.23;100.00
29935;BME280;19905;53.370;-6.314;2023-03-05T12:56:58;101525.81;;;7.65;100.00
29935;BME280;19905;53.370;-6.314;2023-03-05T12:59:35;101511.69;;;7.68;100.00
29935;BME280;19905;53.370;-6.314;2023-03-05T13:02:18;101507.41;;;7.65;100.00
29935;BME280;19905;53.370;-6.314;2023-03-05T13:04:48;101499.94;;;7.75;100.00
29935;BME280;19905;53.370;-6.314;2023-03-05T13:07:18;101496.88;;;7.82;100.00
29935;BME280;19905;53.370;-6.314;2023-03-05T13:09:51;101489.91;;;7.81;100.00